sensor_id;sensor_type;location;lat;lon;timestamp;pressure;altitude;pressure_sealevel;temperature;humidity
37648;BME280;23490;53.656;10.076;2023-06-22T00:00:43;97795.13;;;-145.95;92.45
37648;BME280;23490;53.656;10.076;2023-06-22T00:03:09;97848.81;;;-145.95;91.43
37648;BME280;23490;53.656;10.076;2023-06-22T00:05:35;97819.91;;;-145.95;90.89
37648;BME280;23490;53.656;10.076;2023-06-22T00:08:03;97795.13;;;-145.95;90.67
37648;BME280;23490;53.656;10.076;2023-06-22T00:10:29;97778.63;;;-145.95;90.71
37648;BME280;23490;53.656;10.076;2023-06-22T00:12:54;97786.88;;;-145.95;91.28
37648;BME280;23490;53.656;10.076;2023-06-22T00:15:20;97838.47;;;-145.95;91.87
37648;BME280;23490;53.656;10.076;2023-06-22T00:17:49;97826.09;;;-145.95;91.29
37648;BME280;23490;53.656;10.076;2023-06-22T00:20:15;97803.38;;;-145.95;93.30
37648;BME280;23490;53.656;10.076;2023-06-22T00:22:43;97869.44;;;-145.95;95.71
37648;BME280;23490;53.656;10.076;2023-06-22T00:25:09;97894.22;;;-145.95;95.36
37648;BME280;23490;53.656;10.076;2023-06-22T00:27:35;97871.50;;;-145.95;94.00
37648;BME280;23490;53.656;10.076;2023-06-22T00:30:00;97840.53;;;-145.95;93.06
37648;BME280;23490;53.656;10.076;2023-06-22T00:32:25;97784.81;;;-145.95;93.31
37648;BME280;23490;53.656;10.076;2023-06-22T00:34:51;97859.13;;;-145.95;93.22
37648;BME280;23490;53.656;10.076;2023-06-22T00:37:18;97821.97;;;-145.95;93.76
37648;BME280;23490;53.656;10.076;2023-06-22T00:39:43;97842.59;;;-145.95;93.68
37648;BME280;23490;53.656;10.076;2023-06-22T00:42:08;97869.44;;;-145.95;93.91
37648;BME280;23490;53.656;10.076;2023-06-22T00:44:35;97840.53;;;-145.95;93.93
37648;BME280;23490;53.656;10.076;2023-06-22T00:47:01;97828.16;;;-145.95;93.42
37648;BME280;23490;53.656;10.076;2023-06-22T00:49:28;97877.69;;;-145.95;93.66
37648;BME280;23490;53.656;10.076;2023-06-22T00:51:53;97857.06;;;-145.95;93.87
37648;BME280;23490;53.656;10.076;2023-06-22T00:54:19;97859.13;;;-145.95;95.60
37648;BME280;23490;53.656;10.076;2023-06-22T00:56:53;97869.44;;;-145.95;96.16
37648;BME280;23490;53.656;10.076;2023-06-22T00:59:24;97935.50;;;-145.95;96.79
37648;BME280;23490;53.656;10.076;2023-06-22T01:01:51;97888.03;;;-145.95;95.81
37648;BME280;23490;53.656;10.076;2023-06-22T01:04:17;97871.50;;;-145.95;95.65
37648;BME280;23490;53.656;10.076;2023-06-22T01:06:55;97848.81;;;-145.95;94.79
37648;BME280;23490;53.656;10.076;2023-06-22T01:09:31;97865.31;;;-145.95;95.39
37648;BME280;23490;53.656;10.076;2023-06-22T01:12:02;97885.97;;;-145.95;95.97
37648;BME280;23490;53.656;10.076;2023-06-22T01:14:40;97869.44;;;-145.95;96.98
37648;BME280;23490;53.656;10.076;2023-06-22T01:17:08;97919.00;;;-145.95;96.92
37648;BME280;23490;53.656;10.076;2023-06-22T01:22:15;97873.56;;;-145.95;96.80
37648;BME280;23490;53.656;10.076;2023-06-22T01:27:56;97885.97;;;-145.95;95.38
37648;BME280;23490;53.656;10.076;2023-06-22T01:30:27;97877.69;;;-145.95;96.14
37648;BME280;23490;53.656;10.076;2023-06-22T01:32:56;97916.91;;;-145.95;97.32
37648;BME280;23490;53.656;10.076;2023-06-22T01:35:22;97943.75;;;-145.95;96.79
37648;BME280;23490;53.656;10.076;2023-06-22T01:37:48;97888.03;;;-145.95;96.81
37648;BME280;23490;53.656;10.076;2023-06-22T01:40:14;97881.84;;;-145.95;96.48
37648;BME280;23490;53.656;10.076;2023-06-22T01:42:41;97908.66;;;-145.95;97.22
37648;BME280;23490;53.656;10.076;2023-06-22T01:45:09;97960.28;;;-145.95;98.85
37648;BME280;23490;53.656;10.076;2023-06-22T01:47:35;97949.94;;;-145.95;98.65
37648;BME280;23490;53.656;10.076;2023-06-22T01:50:02;97949.94;;;-145.95;98.42
37648;BME280;23490;53.656;10.076;2023-06-22T01:52:27;97919.00;;;-145.95;98.02
37648;BME280;23490;53.656;10.076;2023-06-22T01:54:53;97919.00;;;-145.95;97.52
37648;BME280;23490;53.656;10.076;2023-06-22T01:57:19;97881.84;;;-145.95;96.25
37648;BME280;23490;53.656;10.076;2023-06-22T02:00:03;97929.31;;;-145.95;96.90
37648;BME280;23490;53.656;10.076;2023-06-22T02:02:48;97912.78;;;-145.95;96.29
37648;BME280;23490;53.656;10.076;2023-06-22T02:05:17;97921.06;;;-145.95;96.79
37648;BME280;23490;53.656;10.076;2023-06-22T02:07:52;97902.47;;;-145.95;97.08
37648;BME280;23490;53.656;10.076;2023-06-22T02:10:20;97974.72;;;-145.95;99.57
37648;BME280;23490;53.656;10.076;2023-06-22T02:12:47;97943.75;;;-145.95;98.80
37648;BME280;23490;53.656;10.076;2023-06-22T02:15:13;97906.59;;;-145.95;98.00
37648;BME280;23490;53.656;10.076;2023-06-22T02:17:40;97904.53;;;-145.95;98.45
37648;BME280;23490;53.656;10.076;2023-06-22T02:20:11;97985.03;;;-145.95;100.00
37648;BME280;23490;53.656;10.076;2023-06-22T02:22:37;97956.16;;;-145.95;100.00
37648;BME280;23490;53.656;10.076;2023-06-22T02:25:02;97968.53;;;-145.95;99.83
37648;BME280;23490;53.656;10.076;2023-06-22T02:27:28;97935.50;;;-145.95;98.84
37648;BME280;23490;53.656;10.076;2023-06-22T02:29:53;97968.53;;;-145.95;99.25
37648;BME280;23490;53.656;10.076;2023-06-22T02:32:20;98001.56;;;-145.95;100.00
37648;BME280;23490;53.656;10.076;2023-06-22T02:34:46;97968.53;;;-145.95;100.00
37648;BME280;23490;53.656;10.076;2023-06-22T02:37:13;97991.25;;;-145.95;99.43
37648;BME280;23490;53.656;10.076;2023-06-22T02:39:40;98013.94;;;-145.95;100.00
37648;BME280;23490;53.656;10.076;2023-06-22T02:42:05;98034.59;;;-145.95;100.00
37648;BME280;23490;53.656;10.076;2023-06-22T02:44:31;97978.84;;;-145.95;100.00
37648;BME280;23490;53.656;10.076;2023-06-22T02:46:57;98038.72;;;-145.95;100.00
37648;BME280;23490;53.656;10.076;2023-06-22T02:49:24;97980.91;;;-145.95;100.00
37648;BME280;23490;53.656;10.076;2023-06-22T02:51:50;98001.56;;;-145.95;100.00
37648;BME280;23490;53.656;10.076;2023-06-22T02:54:16;97974.72;;;-145.95;100.00
37648;BME280;23490;53.656;10.076;2023-06-22T02:56:42;98013.94;;;-145.95;100.00
37648;BME280;23490;53.656;10.076;2023-06-22T02:59:10;98013.94;;;-145.95;100.00
37648;BME280;23490;53.656;10.076;2023-06-22T03:01:36;98024.28;;;-145.95;100.00
37648;BME280;23490;53.656;10.076;2023-06-22T03:04:11;98046.97;;;-145.95;100.00
37648;BME280;23490;53.656;10.076;2023-06-22T03:06:37;98020.13;;;-145.95;100.00
37648;BME280;23490;53.656;10.076;2023-06-22T03:09:06;98030.47;;;-145.95;100.00
37648;BME280;23490;53.656;10.076;2023-06-22T03:11:35;98018.06;;;-145.95;100.00
37648;BME280;23490;53.656;10.076;2023-06-22T03:14:01;98022.22;;;-145.95;100.00
37648;BME280;23490;53.656;10.076;2023-06-22T03:16:27;98022.22;;;-145.95;100.00
37648;BME280;23490;53.656;10.076;2023-06-22T03:18:52;98063.50;;;-145.95;100.00
37648;BME280;23490;53.656;10.076;2023-06-22T03:21:27;98051.09;;;-145.95;100.00
37648;BME280;23490;53.656;10.076;2023-06-22T03:23:53;98003.63;;;-145.95;100.00
37648;BME280;23490;53.656;10.076;2023-06-22T03:26:18;98022.22;;;-145.95;100.00
37648;BME280;23490;53.656;10.076;2023-06-22T03:28:44;98030.47;;;-145.95;99.62
37648;BME280;23490;53.656;10.076;2023-06-22T03:31:09;98038.72;;;-145.95;100.00
37648;BME280;23490;53.656;10.076;2023-06-22T03:33:34;98059.38;;;-145.95;100.00
37648;BME280;23490;53.656;10.076;2023-06-22T03:36:01;98053.16;;;-145.95;100.00
37648;BME280;23490;53.656;10.076;2023-06-22T03:38:27;97995.38;;;-145.95;100.00
37648;BME280;23490;53.656;10.076;2023-06-22T03:40:52;98077.94;;;-145.95;100.00
37648;BME280;23490;53.656;10.076;2023-06-22T03:43:17;98063.50;;;-145.95;100.00
37648;BME280;23490;53.656;10.076;2023-06-22T03:45:43;98057.31;;;-145.95;100.00
37648;BME280;23490;53.656;10.076;2023-06-22T03:48:11;98053.16;;;-145.95;100.00
37648;BME280;23490;53.656;10.076;2023-06-22T03:50:36;98022.22;;;-145.95;100.00
37648;BME280;23490;53.656;10.076;2023-06-22T03:53:02;97993.31;;;-145.95;99.87
37648;BME280;23490;53.656;10.076;2023-06-22T03:55:27;97993.31;;;-145.95;100.00
37648;BME280;23490;53.656;10.076;2023-06-22T03:57:53;98026.34;;;-145.95;99.69
37648;BME280;23490;53.656;10.076;2023-06-22T04:00:22;98036.66;;;-145.95;100.00
37648;BME280;23490;53.656;10.076;2023-06-22T04:02:47;98022.22;;;-145.95;99.92
37648;BME280;23490;53.656;10.076;2023-06-22T04:05:13;98026.34;;;-145.95;98.19
37648;BME280;23490;53.656;10.076;2023-06-22T04:07:39;97985.03;;;-145.95;98.75
37648;BME280;23490;53.656;10.076;2023-06-22T04:10:05;98001.56;;;-145.95;99.45
37648;BME280;23490;53.656;10.076;2023-06-22T04:12:30;97997.44;;;-145.95;99.16
37648;BME280;23490;53.656;10.076;2023-06-22T04:14:56;98013.94;;;-145.95;97.79
37648;BME280;23490;53.656;10.076;2023-06-22T04:17:22;97980.91;;;-145.95;98.12
37648;BME280;23490;53.656;10.076;2023-06-22T04:19:50;97997.44;;;-145.95;97.72
37648;BME280;23490;53.656;10.076;2023-06-22T04:22:17;97980.91;;;-145.95;97.14
37648;BME280;23490;53.656;10.076;2023-06-22T04:24:43;97972.66;;;-145.95;95.36
37648;BME280;23490;53.656;10.076;2023-06-22T04:27:09;98005.69;;;-145.95;96.06
37648;BME280;23490;53.656;10.076;2023-06-22T04:29:35;97894.22;;;-145.95;96.04
37648;BME280;23490;53.656;10.076;2023-06-22T04:32:01;97964.41;;;-145.95;95.91
37648;BME280;23490;53.656;10.076;2023-06-22T04:34:30;97943.75;;;-145.95;95.41
37648;BME280;23490;53.656;10.076;2023-06-22T04:36:55;97999.50;;;-145.95;94.69
37648;BME280;23490;53.656;10.076;2023-06-22T04:39:21;97964.41;;;-145.95;95.26
37648;BME280;23490;53.656;10.076;2023-06-22T04:41:47;97952.00;;;-145.95;94.78
37648;BME280;23490;53.656;10.076;2023-06-22T04:44:17;97908.66;;;-145.95;94.06
37648;BME280;23490;53.656;10.076;2023-06-22T04:46:50;97919.00;;;-145.95;95.08
37648;BME280;23490;53.656;10.076;2023-06-22T04:49:20;97910.72;;;-145.95;94.71
37648;BME280;23490;53.656;10.076;2023-06-22T04:51:45;97931.38;;;-145.95;93.47
37648;BME280;23490;53.656;10.076;2023-06-22T04:54:10;97861.19;;;-145.95;93.08
37648;BME280;23490;53.656;10.076;2023-06-22T04:56:36;97875.63;;;-145.95;91.07
37648;BME280;23490;53.656;10.076;2023-06-22T04:59:03;97879.78;;;-145.95;92.10
37648;BME280;23490;53.656;10.076;2023-06-22T05:01:29;97852.94;;;-145.95;93.00
37648;BME280;23490;53.656;10.076;2023-06-22T05:03:56;97809.59;;;-145.95;90.66
37648;BME280;23490;53.656;10.076;2023-06-22T05:06:23;97857.06;;;-145.95;90.87
37648;BME280;23490;53.656;10.076;2023-06-22T05:08:55;97832.28;;;-145.95;89.34
37648;BME280;23490;53.656;10.076;2023-06-22T05:11:26;97838.47;;;-145.95;90.62
37648;BME280;23490;53.656;10.076;2023-06-22T05:13:56;97848.81;;;-145.95;90.49
37648;BME280;23490;53.656;10.076;2023-06-22T05:16:22;97832.28;;;-145.95;89.31
37648;BME280;23490;53.656;10.076;2023-06-22T05:18:57;97836.41;;;-145.95;88.30
37648;BME280;23490;53.656;10.076;2023-06-22T05:21:26;97865.31;;;-145.95;88.08
37648;BME280;23490;53.656;10.076;2023-06-22T05:23:56;97815.78;;;-145.95;89.12
37648;BME280;23490;53.656;10.076;2023-06-22T05:26:26;97778.63;;;-145.95;88.97
37648;BME280;23490;53.656;10.076;2023-06-22T05:28:53;97791.00;;;-145.95;86.55
37648;BME280;23490;53.656;10.076;2023-06-22T05:31:24;97741.47;;;-145.95;86.25
37648;BME280;23490;53.656;10.076;2023-06-22T05:33:52;97714.63;;;-145.95;86.40
37648;BME280;23490;53.656;10.076;2023-06-22T05:36:19;97745.59;;;-145.95;86.75
37648;BME280;23490;53.656;10.076;2023-06-22T05:38:45;97720.81;;;-145.95;84.93
37648;BME280;23490;53.656;10.076;2023-06-22T05:41:11;97751.78;;;-145.95;84.22
37648;BME280;23490;53.656;10.076;2023-06-22T05:43:36;97745.59;;;-145.95;83.59
37648;BME280;23490;53.656;10.076;2023-06-22T05:46:03;97774.50;;;-145.95;81.83
37648;BME280;23490;53.656;10.076;2023-06-22T05:48:29;97687.78;;;-145.95;82.08
37648;BME280;23490;53.656;10.076;2023-06-22T05:50:56;97691.91;;;-145.95;80.70
37648;BME280;23490;53.656;10.076;2023-06-22T05:53:21;97588.72;;;-145.95;80.83
37648;BME280;23490;53.656;10.076;2023-06-22T05:55:48;97667.16;;;-145.95;80.45
37648;BME280;23490;53.656;10.076;2023-06-22T05:58:14;97621.75;;;-145.95;79.99
37648;BME280;23490;53.656;10.076;2023-06-22T06:00:40;97630.00;;;-145.95;77.57
37648;BME280;23490;53.656;10.076;2023-06-22T06:03:07;97605.22;;;-145.95;78.50
37648;BME280;23490;53.656;10.076;2023-06-22T06:05:34;97592.84;;;-145.95;77.88
37648;BME280;23490;53.656;10.076;2023-06-22T06:08:00;97588.72;;;-145.95;78.17
37648;BME280;23490;53.656;10.076;2023-06-22T06:10:27;97543.31;;;-145.95;75.78
37648;BME280;23490;53.656;10.076;2023-06-22T06:12:55;97535.03;;;-145.95;76.44
37648;BME280;23490;53.656;10.076;2023-06-22T06:15:20;97497.88;;;-145.95;76.50
37648;BME280;23490;53.656;10.076;2023-06-22T06:17:47;97466.94;;;-145.95;74.75
37648;BME280;23490;53.656;10.076;2023-06-22T06:20:12;97473.13;;;-145.95;71.85
37648;BME280;23490;53.656;10.076;2023-06-22T06:22:38;97469.00;;;-145.95;69.57
37648;BME280;23490;53.656;10.076;2023-06-22T06:25:03;97522.66;;;-145.95;71.07
37648;BME280;23490;53.656;10.076;2023-06-22T06:27:29;97452.47;;;-145.95;68.47
37648;BME280;23490;53.656;10.076;2023-06-22T06:29:56;97479.31;;;-145.95;70.71
37648;BME280;23490;53.656;10.076;2023-06-22T06:32:22;97419.47;;;-145.95;68.66
37648;BME280;23490;53.656;10.076;2023-06-22T06:34:51;97392.63;;;-145.95;69.26
37648;BME280;23490;53.656;10.076;2023-06-22T06:37:17;97419.47;;;-145.95;68.52
37648;BME280;23490;53.656;10.076;2023-06-22T06:39:43;97429.78;;;-145.95;71.29
37648;BME280;23490;53.656;10.076;2023-06-22T06:42:09;97477.25;;;-145.95;69.00
37648;BME280;23490;53.656;10.076;2023-06-22T06:44:36;97456.63;;;-145.95;70.14
37648;BME280;23490;53.656;10.076;2023-06-22T06:47:04;97435.97;;;-145.95;70.43
37648;BME280;23490;53.656;10.076;2023-06-22T06:49:30;97390.56;;;-145.95;70.59
37648;BME280;23490;53.656;10.076;2023-06-22T06:51:55;97431.84;;;-145.95;71.61
37648;BME280;23490;53.656;10.076;2023-06-22T06:54:21;97396.75;;;-145.95;71.87
37648;BME280;23490;53.656;10.076;2023-06-22T06:56:46;97411.19;;;-145.95;72.67
37648;BME280;23490;53.656;10.076;2023-06-22T06:59:16;97419.47;;;-145.95;73.47
37648;BME280;23490;53.656;10.076;2023-06-22T07:01:42;97402.94;;;-145.95;72.64
37648;BME280;23490;53.656;10.076;2023-06-22T07:04:09;97361.66;;;-145.95;72.12
37648;BME280;23490;53.656;10.076;2023-06-22T07:06:36;97386.44;;;-145.95;69.93
37648;BME280;23490;53.656;10.076;2023-06-22T07:09:01;97320.38;;;-145.95;70.92
37648;BME280;23490;53.656;10.076;2023-06-22T07:11:27;97363.72;;;-145.95;71.81
37648;BME280;23490;53.656;10.076;2023-06-22T07:13:57;97328.66;;;-145.95;70.42
37648;BME280;23490;53.656;10.076;2023-06-22T07:16:22;97303.88;;;-145.95;70.31
37648;BME280;23490;53.656;10.076;2023-06-22T07:18:48;97258.47;;;-145.95;69.21
37648;BME280;23490;53.656;10.076;2023-06-22T07:21:14;97258.47;;;-145.95;67.71
37648;BME280;23490;53.656;10.076;2023-06-22T07:23:39;97256.41;;;-145.95;67.95
37648;BME280;23490;53.656;10.076;2023-06-22T07:26:04;97217.19;;;-145.95;69.96
37648;BME280;23490;53.656;10.076;2023-06-22T07:28:31;97213.06;;;-145.95;68.21
37648;BME280;23490;53.656;10.076;2023-06-22T07:31:02;97142.88;;;-145.95;71.48
37648;BME280;23490;53.656;10.076;2023-06-22T07:33:28;97213.06;;;-145.95;66.83
37648;BME280;23490;53.656;10.076;2023-06-22T07:35:53;97165.59;;;-145.95;67.93
37648;BME280;23490;53.656;10.076;2023-06-22T07:38:18;97109.88;;;-145.95;67.02
37648;BME280;23490;53.656;10.076;2023-06-22T07:40:44;97138.75;;;-145.95;67.43
37648;BME280;23490;53.656;10.076;2023-06-22T07:43:10;97134.63;;;-145.95;66.50
37648;BME280;23490;53.656;10.076;2023-06-22T07:45:38;97147.03;;;-145.95;66.15
37648;BME280;23490;53.656;10.076;2023-06-22T07:48:05;97153.22;;;-145.95;66.08
37648;BME280;23490;53.656;10.076;2023-06-22T07:50:30;97142.88;;;-145.95;67.93
37648;BME280;23490;53.656;10.076;2023-06-22T07:52:57;97118.13;;;-145.95;65.23
37648;BME280;23490;53.656;10.076;2023-06-22T07:55:22;97085.09;;;-145.95;63.90
37648;BME280;23490;53.656;10.076;2023-06-22T07:57:49;97097.50;;;-145.95;64.42
37648;BME280;23490;53.656;10.076;2023-06-22T08:00:17;97043.81;;;-145.95;63.59
37648;BME280;23490;53.656;10.076;2023-06-22T08:02:45;96983.97;;;-145.95;64.54
37648;BME280;23490;53.656;10.076;2023-06-22T08:05:11;96992.22;;;-145.95;64.21
37648;BME280;23490;53.656;10.076;2023-06-22T08:07:37;96909.69;;;-145.95;63.18
37648;BME280;23490;53.656;10.076;2023-06-22T08:10:08;96905.56;;;-145.95;62.28
37648;BME280;23490;53.656;10.076;2023-06-22T08:12:35;96981.91;;;-145.95;61.66
37648;BME280;23490;53.656;10.076;2023-06-22T08:15:00;96920.00;;;-145.95;63.01
37648;BME280;23490;53.656;10.076;2023-06-22T08:17:27;96897.31;;;-145.95;60.01
37648;BME280;23490;53.656;10.076;2023-06-22T08:19:52;96866.34;;;-145.95;59.28
37648;BME280;23490;53.656;10.076;2023-06-22T08:22:18;96845.72;;;-145.95;61.49
37648;BME280;23490;53.656;10.076;2023-06-22T08:24:44;96882.84;;;-145.95;59.82
37648;BME280;23490;53.656;10.076;2023-06-22T08:27:10;96862.22;;;-145.95;59.34
37648;BME280;23490;53.656;10.076;2023-06-22T08:29:40;96734.28;;;-145.95;59.46
37648;BME280;23490;53.656;10.076;2023-06-22T08:32:09;96649.66;;;-145.95;56.76
37648;BME280;23490;53.656;10.076;2023-06-22T08:34:35;96643.47;;;-145.95;58.44
37648;BME280;23490;53.656;10.076;2023-06-22T08:37:02;96546.50;;;-145.95;56.83
37648;BME280;23490;53.656;10.076;2023-06-22T08:39:31;96577.44;;;-145.95;59.06
37648;BME280;23490;53.656;10.076;2023-06-22T08:41:57;96604.25;;;-145.95;54.98
37648;BME280;23490;53.656;10.076;2023-06-22T08:44:22;96552.69;;;-145.95;54.50
37648;BME280;23490;53.656;10.076;2023-06-22T08:46:47;96659.97;;;-145.95;53.98
37648;BME280;23490;53.656;10.076;2023-06-22T08:49:13;96466.00;;;-145.95;52.75
37648;BME280;23490;53.656;10.076;2023-06-22T08:51:38;96503.16;;;-145.95;53.77
37648;BME280;23490;53.656;10.076;2023-06-22T08:54:04;96399.97;;;-145.95;54.91
37648;BME280;23490;53.656;10.076;2023-06-22T08:56:30;96342.22;;;-145.95;54.22
37648;BME280;23490;53.656;10.076;2023-06-22T08:58:55;96239.03;;;-145.95;51.20
37648;BME280;23490;53.656;10.076;2023-06-22T09:01:22;96144.13;;;-145.95;50.96
37648;BME280;23490;53.656;10.076;2023-06-22T09:03:48;96300.94;;;-145.95;49.16
37648;BME280;23490;53.656;10.076;2023-06-22T09:06:21;96257.59;;;-145.95;46.95
37648;BME280;23490;53.656;10.076;2023-06-22T09:08:47;96255.53;;;-145.95;48.64
37648;BME280;23490;53.656;10.076;2023-06-22T09:11:13;96239.03;;;-145.95;49.32
37648;BME280;23490;53.656;10.076;2023-06-22T09:13:38;96166.81;;;-145.95;49.75
37648;BME280;23490;53.656;10.076;2023-06-22T09:16:05;96026.53;;;-145.95;46.31
37648;BME280;23490;53.656;10.076;2023-06-22T09:18:30;95995.56;;;-145.95;46.46
37648;BME280;23490;53.656;10.076;2023-06-22T09:20:59;96053.34;;;-145.95;48.08
37648;BME280;23490;53.656;10.076;2023-06-22T09:23:24;96133.81;;;-145.95;47.54
37648;BME280;23490;53.656;10.076;2023-06-22T09:25:50;96036.84;;;-145.95;47.35
37648;BME280;23490;53.656;10.076;2023-06-22T09:28:15;95999.69;;;-145.95;47.54
37648;BME280;23490;53.656;10.076;2023-06-22T09:30:45;95937.81;;;-145.95;47.32
37648;BME280;23490;53.656;10.076;2023-06-22T09:33:10;95915.13;;;-145.95;48.53
37648;BME280;23490;53.656;10.076;2023-06-22T09:35:36;95752.13;;;-145.95;46.82
37648;BME280;23490;53.656;10.076;2023-06-22T09:38:01;95768.63;;;-145.95;47.80
37648;BME280;23490;53.656;10.076;2023-06-22T09:40:26;95719.13;;;-145.95;46.09
37648;BME280;23490;53.656;10.076;2023-06-22T09:42:52;95694.38;;;-145.95;46.33
37648;BME280;23490;53.656;10.076;2023-06-22T09:45:18;95657.22;;;-145.95;45.93
37648;BME280;23490;53.656;10.076;2023-06-22T09:47:43;95698.50;;;-145.95;46.12
37648;BME280;23490;53.656;10.076;2023-06-22T09:50:09;95760.38;;;-145.95;46.02
37648;BME280;23490;53.656;10.076;2023-06-22T09:52:34;95615.97;;;-145.95;46.19
37648;BME280;23490;53.656;10.076;2023-06-22T09:54:59;95611.84;;;-145.95;47.15
37648;BME280;23490;53.656;10.076;2023-06-22T09:57:27;95442.69;;;-145.95;45.53
37648;BME280;23490;53.656;10.076;2023-06-22T09:59:54;95545.84;;;-145.95;44.91
37648;BME280;23490;53.656;10.076;2023-06-22T10:02:23;95481.88;;;-145.95;44.26
37648;BME280;23490;53.656;10.076;2023-06-22T10:04:49;95442.69;;;-145.95;44.16
37648;BME280;23490;53.656;10.076;2023-06-22T10:07:16;95510.75;;;-145.95;46.27
37648;BME280;23490;53.656;10.076;2023-06-22T10:09:42;95384.94;;;-145.95;44.55
37648;BME280;23490;53.656;10.076;2023-06-22T10:12:07;95384.94;;;-145.95;44.49
37648;BME280;23490;53.656;10.076;2023-06-22T10:14:33;95405.56;;;-145.95;42.95
37648;BME280;23490;53.656;10.076;2023-06-22T10:16:59;95290.03;;;-145.95;43.03
37648;BME280;23490;53.656;10.076;2023-06-22T10:19:25;95145.66;;;-145.95;42.93
37648;BME280;23490;53.656;10.076;2023-06-22T10:21:51;94920.81;;;-145.95;42.13
37648;BME280;23490;53.656;10.076;2023-06-22T10:24:17;95009.50;;;-145.95;39.43
37648;BME280;23490;53.656;10.076;2023-06-22T10:26:42;95149.78;;;-145.95;41.59
37648;BME280;23490;53.656;10.076;2023-06-22T10:29:07;95304.47;;;-145.95;43.05
37648;BME280;23490;53.656;10.076;2023-06-22T10:31:33;95473.63;;;-145.95;43.48
37648;BME280;23490;53.656;10.076;2023-06-22T10:33:58;95615.97;;;-145.95;43.53
37648;BME280;23490;53.656;10.076;2023-06-22T10:36:23;95694.38;;;-145.95;44.84
37648;BME280;23490;53.656;10.076;2023-06-22T10:38:49;95562.34;;;-145.95;45.25
37648;BME280;23490;53.656;10.076;2023-06-22T10:41:16;95805.78;;;-145.95;45.35
37648;BME280;23490;53.656;10.076;2023-06-22T10:43:42;95863.53;;;-145.95;46.49
37648;BME280;23490;53.656;10.076;2023-06-22T10:46:07;95748.00;;;-145.95;44.67
37648;BME280;23490;53.656;10.076;2023-06-22T10:48:33;95814.03;;;-145.95;47.73
37648;BME280;23490;53.656;10.076;2023-06-22T10:50:58;95793.38;;;-145.95;46.29
37648;BME280;23490;53.656;10.076;2023-06-22T10:53:24;95644.84;;;-145.95;44.83
37648;BME280;23490;53.656;10.076;2023-06-22T10:55:49;95320.97;;;-145.95;43.65
37648;BME280;23490;53.656;10.076;2023-06-22T10:58:15;95306.53;;;-145.95;44.06
37648;BME280;23490;53.656;10.076;2023-06-22T11:00:40;95417.94;;;-145.95;43.20
37648;BME280;23490;53.656;10.076;2023-06-22T11:03:05;95479.81;;;-145.95;46.09
37648;BME280;23490;53.656;10.076;2023-06-22T11:05:31;95570.59;;;-145.95;44.69
37648;BME280;23490;53.656;10.076;2023-06-22T11:07:58;95847.03;;;-145.95;46.08
37648;BME280;23490;53.656;10.076;2023-06-22T11:10:23;95962.56;;;-145.95;47.07
37648;BME280;23490;53.656;10.076;2023-06-22T11:12:49;95851.16;;;-145.95;47.00
37648;BME280;23490;53.656;10.076;2023-06-22T11:15:15;95867.66;;;-145.95;47.70
37648;BME280;23490;53.656;10.076;2023-06-22T11:17:40;95882.09;;;-145.95;49.13
37648;BME280;23490;53.656;10.076;2023-06-22T11:20:07;95983.19;;;-145.95;47.70
37648;BME280;23490;53.656;10.076;2023-06-22T11:22:39;95710.88;;;-145.95;46.79
37648;BME280;23490;53.656;10.076;2023-06-22T11:25:05;95384.94;;;-145.95;45.95
37648;BME280;23490;53.656;10.076;2023-06-22T11:27:33;95145.66;;;-145.95;43.50
37648;BME280;23490;53.656;10.076;2023-06-22T11:29:58;95191.03;;;-145.95;42.38
37648;BME280;23490;53.656;10.076;2023-06-22T11:32:24;95009.50;;;-145.95;41.78
37648;BME280;23490;53.656;10.076;2023-06-22T11:34:49;94984.75;;;-145.95;41.85
37648;BME280;23490;53.656;10.076;2023-06-22T11:37:15;94988.88;;;-145.95;41.12
37648;BME280;23490;53.656;10.076;2023-06-22T11:39:41;95248.78;;;-145.95;40.77
37648;BME280;23490;53.656;10.076;2023-06-22T11:42:07;95556.16;;;-145.95;42.46
37648;BME280;23490;53.656;10.076;2023-06-22T11:44:32;95787.19;;;-145.95;45.50
37648;BME280;23490;53.656;10.076;2023-06-22T11:46:59;95636.59;;;-145.95;44.01
37648;BME280;23490;53.656;10.076;2023-06-22T11:49:26;95593.28;;;-145.95;44.45
37648;BME280;23490;53.656;10.076;2023-06-22T11:51:51;95432.38;;;-145.95;44.74
37648;BME280;23490;53.656;10.076;2023-06-22T11:54:17;95166.28;;;-145.95;42.87
37648;BME280;23490;53.656;10.076;2023-06-22T11:56:42;95426.19;;;-145.95;42.18
37648;BME280;23490;53.656;10.076;2023-06-22T11:59:07;95587.09;;;-145.95;44.44
37648;BME280;23490;53.656;10.076;2023-06-22T12:01:33;95566.47;;;-145.95;45.57
37648;BME280;23490;53.656;10.076;2023-06-22T12:03:59;95865.59;;;-145.95;46.04
37648;BME280;23490;53.656;10.076;2023-06-22T12:06:25;95805.78;;;-145.95;45.49
37648;BME280;23490;53.656;10.076;2023-06-22T12:08:51;95933.69;;;-145.95;45.79
37648;BME280;23490;53.656;10.076;2023-06-22T12:11:16;95805.78;;;-145.95;47.30
37648;BME280;23490;53.656;10.076;2023-06-22T12:13:42;95927.50;;;-145.95;47.06
37648;BME280;23490;53.656;10.076;2023-06-22T12:16:07;95723.25;;;-145.95;47.36
37648;BME280;23490;53.656;10.076;2023-06-22T12:18:32;95605.66;;;-145.95;44.67
37648;BME280;23490;53.656;10.076;2023-06-22T12:20:58;95521.06;;;-145.95;44.18
37648;BME280;23490;53.656;10.076;2023-06-22T12:23:23;95335.41;;;-145.95;44.08
37648;BME280;23490;53.656;10.076;2023-06-22T12:25:48;95364.31;;;-145.95;42.97
37648;BME280;23490;53.656;10.076;2023-06-22T12:28:15;95335.41;;;-145.95;44.69
37648;BME280;23490;53.656;10.076;2023-06-22T12:30:40;95302.41;;;-145.95;43.33